Time;durP1;ratioP1;P1;durP2;ratioP2;P2;SDS_P1;SDS_P2;PMS_P1;PMS_P2;Temp;Humidity;BMP_temperature;BMP_pressure;BME280_temperature;BME280_humidity;BME280_pressure;Samples;Min_cycle;Max_cycle;Signal;HPM_P1;HPM_P2
2021/03/27 00:00:32;;;;;;;;;;;6.60;78.50;;;;;;5007881;28;19910;-74
2021/03/27 00:03:23;;;;;;;;;;;6.70;78.50;;;;;;5027719;28;20302;-74
2021/03/27 00:06:06;;;;;;;;;;;6.70;78.50;;;;;;5018403;28;19914;-76
2021/03/27 00:08:44;;;;;;;;;;;6.70;78.30;;;;;;5014853;28;19960;-75
2021/03/27 00:11:13;;;;;;;;;;;6.70;78.10;;;;;;5014576;28;19960;-76
2021/03/27 00:13:45;;;;;;;;;;;6.80;78.00;;;;;;4997237;28;19933;-75
2021/03/27 00:16:17;;;;;;;;;;;6.70;77.80;;;;;;5016285;28;19909;-75
2021/03/27 00:18:51;;;;;;;;;;;6.80;77.60;;;;;;5014344;28;19913;-74
2021/03/27 00:21:22;;;;;;;;;;;6.70;77.40;;;;;;5012628;28;19947;-75
2021/03/27 00:23:54;;;;;;;;;;;6.80;77.50;;;;;;5014145;28;19909;-75
2021/03/27 00:26:32;;;;;;;;;;;6.70;77.30;;;;;;5014342;28;19910;-75
2021/03/27 00:29:07;;;;;;;;;;;6.70;77.30;;;;;;5014338;28;20385;-79
2021/03/27 00:31:41;;;;;;;;;;;6.70;77.20;;;;;;5014270;28;19917;-75
2021/03/27 00:34:10;;;;;;;;;;;6.60;77.00;;;;;;5004783;28;19922;-75
2021/03/27 00:36:37;;;;;;;;;;;6.60;76.80;;;;;;5014012;28;20424;-74
2021/03/27 00:39:15;;;;;;;;;;;6.60;76.90;;;;;;5014155;28;19914;-75
2021/03/27 00:42:01;;;;;;;;;;;6.60;76.80;;;;;;5013530;28;19921;-74
2021/03/27 00:44:38;;;;;;;;;;;6.60;76.80;;;;;;5006229;28;20008;-75
2021/03/27 00:47:04;;;;;;;;;;;6.60;76.80;;;;;;4996354;28;19916;-76
2021/03/27 00:49:35;;;;;;;;;;;6.60;76.70;;;;;;5014038;28;19916;-74
2021/03/27 00:52:05;;;;;;;;;;;6.60;76.60;;;;;;5014117;28;19915;-75
2021/03/27 00:54:34;;;;;;;;;;;6.60;76.50;;;;;;5005671;28;19939;-74
2021/03/27 00:57:10;;;;;;;;;;;6.50;76.50;;;;;;5014155;28;20020;-74
2021/03/27 00:59:37;;;;;;;;;;;6.50;76.60;;;;;;5005746;28;19910;-75
2021/03/27 01:02:06;;;;;;;;;;;6.50;76.70;;;;;;4996242;28;19910;-74
2021/03/27 01:04:33;;;;;;;;;;;6.50;76.80;;;;;;5013351;28;19910;-75
2021/03/27 01:07:08;;;;;;;;;;;6.50;76.70;;;;;;5013956;28;19910;-75
2021/03/27 01:09:42;;;;;;;;;;;6.50;76.70;;;;;;5013502;28;19909;-74
2021/03/27 01:12:11;;;;;;;;;;;6.40;76.70;;;;;;5013674;28;19933;-74
2021/03/27 01:14:48;;;;;;;;;;;6.40;76.70;;;;;;5013478;28;19924;-75
2021/03/27 01:17:18;;;;;;;;;;;6.40;76.80;;;;;;4980679;28;19920;-75
2021/03/27 01:19:47;;;;;;;;;;;6.40;76.90;;;;;;4992656;28;20433;-74
2021/03/27 01:22:13;;;;;;;;;;;6.40;76.80;;;;;;5013900;28;19920;-75
2021/03/27 01:24:39;;;;;;;;;;;6.40;76.80;;;;;;5014124;28;19910;-75
2021/03/27 01:27:25;;;;;;;;;;;6.40;76.70;;;;;;4995777;28;19909;-74
2021/03/27 01:30:00;;;;;;;;;;;6.40;76.70;;;;;;5008312;28;19910;-74
2021/03/27 01:32:44;;;;;;;;;;;6.40;76.60;;;;;;5018963;28;19940;-75
2021/03/27 01:35:09;;;;;;;;;;;6.50;76.50;;;;;;5009937;28;19913;-73
2021/03/27 01:38:07;;;;;;;;;;;6.50;76.40;;;;;;5013289;28;19909;-75
2021/03/27 01:40:39;;;;;;;;;;;6.50;76.20;;;;;;4969681;28;20017;-75
2021/03/27 01:43:17;;;;;;;;;;;6.60;76.10;;;;;;5013038;28;19953;-76
2021/03/27 01:45:57;;;;;;;;;;;6.60;76.00;;;;;;5000737;28;19916;-75
2021/03/27 01:48:42;;;;;;;;;;;6.50;75.80;;;;;;5017265;28;19909;-74
2021/03/27 01:51:16;;;;;;;;;;;6.50;75.70;;;;;;4999931;28;19993;-75
2021/03/27 01:53:48;;;;;;;;;;;6.50;75.70;;;;;;5011973;28;19922;-74
2021/03/27 01:56:17;;;;;;;;;;;6.50;75.60;;;;;;5002301;28;20383;-76
2021/03/27 01:59:04;;;;;;;;;;;6.60;75.60;;;;;;5004081;28;19909;-75
2021/03/27 02:01:32;;;;;;;;;;;6.50;75.50;;;;;;5014507;28;19925;-75
2021/03/27 02:04:09;;;;;;;;;;;6.50;75.50;;;;;;5008629;28;19914;-75
2021/03/27 02:06:44;;;;;;;;;;;6.50;75.60;;;;;;5012751;28;19913;-75
2021/03/27 02:09:10;;;;;;;;;;;6.50;75.70;;;;;;5012944;28;19963;-76
2021/03/27 02:11:35;;;;;;;;;;;6.50;75.70;;;;;;5013101;28;20329;-76
2021/03/27 02:14:10;;;;;;;;;;;6.50;75.80;;;;;;5012684;28;19918;-75
2021/03/27 02:16:42;;;;;;;;;;;6.50;75.90;;;;;;5011884;28;19916;-75
2021/03/27 02:19:32;;;;;;;;;;;6.40;75.80;;;;;;5012944;28;19949;-76
2021/03/27 02:22:18;;;;;;;;;;;6.40;75.90;;;;;;5000437;28;19909;-75
2021/03/27 02:24:50;;;;;;;;;;;6.40;75.90;;;;;;5012723;28;19909;-75
2021/03/27 02:27:30;;;;;;;;;;;6.40;76.00;;;;;;5012770;28;20353;-75
2021/03/27 02:30:18;;;;;;;;;;;6.30;76.00;;;;;;5012908;28;19910;-75
2021/03/27 02:33:00;;;;;;;;;;;6.30;76.00;;;;;;5012574;28;19925;-76
2021/03/27 02:35:45;;;;;;;;;;;6.30;76.20;;;;;;5013002;28;20007;-76
2021/03/27 02:38:11;;;;;;;;;;;6.30;76.00;;;;;;5011658;28;20386;-75
2021/03/27 02:40:38;;;;;;;;;;;6.20;75.80;;;;;;5012755;28;19913;-76
2021/03/27 02:43:04;;;;;;;;;;;6.20;75.80;;;;;;5024649;28;20429;-74
2021/03/27 02:45:41;;;;;;;;;;;6.10;75.70;;;;;;5033438;28;19913;-75
2021/03/27 02:48:11;;;;;;;;;;;6.10;75.70;;;;;;5032515;28;19995;-75
2021/03/27 02:50:39;;;;;;;;;;;6.10;75.70;;;;;;5032476;28;19913;-75
2021/03/27 02:53:37;;;;;;;;;;;6.10;75.70;;;;;;5032251;28;19917;-75
2021/03/27 02:56:02;;;;;;;;;;;6.00;75.80;;;;;;4985944;28;20371;-75
2021/03/27 02:58:30;;;;;;;;;;;6.00;75.80;;;;;;5013339;28;19910;-76
2021/03/27 03:00:59;;;;;;;;;;;6.00;75.70;;;;;;5007162;28;19955;-76
2021/03/27 03:03:44;;;;;;;;;;;6.00;75.70;;;;;;5014444;28;19959;-76
2021/03/27 03:06:15;;;;;;;;;;;5.90;75.60;;;;;;5033819;28;19950;-75
2021/03/27 03:08:44;;;;;;;;;;;5.90;75.50;;;;;;5008651;28;20314;-75
2021/03/27 03:11:17;;;;;;;;;;;5.90;75.50;;;;;;5035950;28;19920;-75
2021/03/27 03:13:47;;;;;;;;;;;5.90;75.40;;;;;;5035691;28;20271;-74
2021/03/27 03:16:35;;;;;;;;;;;5.90;75.40;;;;;;5035954;28;20378;-75
2021/03/27 03:19:06;;;;;;;;;;;5.90;75.30;;;;;;5035383;28;19913;-74
2021/03/27 03:21:44;;;;;;;;;;;5.90;75.40;;;;;;5035410;28;19932;-75
2021/03/27 03:24:28;;;;;;;;;;;5.90;75.60;;;;;;5035790;28;19920;-75
2021/03/27 03:26:56;;;;;;;;;;;5.90;75.10;;;;;;5035334;28;19916;-75
2021/03/27 03:29:46;;;;;;;;;;;5.90;75.10;;;;;;5035361;28;19912;-75
2021/03/27 03:32:30;;;;;;;;;;;6.00;75.10;;;;;;5035145;28;19910;-75
2021/03/27 03:34:58;;;;;;;;;;;6.00;74.90;;;;;;5032554;28;19917;-74
2021/03/27 03:37:29;;;;;;;;;;;6.00;74.20;;;;;;5020994;28;19910;-75
2021/03/27 03:39:55;;;;;;;;;;;6.00;74.20;;;;;;5035347;28;19909;-76
2021/03/27 03:42:35;;;;;;;;;;;6.00;74.10;;;;;;5035340;28;19932;-75
2021/03/27 03:45:23;;;;;;;;;;;6.00;73.90;;;;;;5035327;28;19960;-75
2021/03/27 03:47:55;;;;;;;;;;;6.00;73.90;;;;;;5016579;28;19959;-75
2021/03/27 03:50:21;;;;;;;;;;;6.10;73.90;;;;;;4993834;28;20290;-75
2021/03/27 03:53:12;;;;;;;;;;;6.10;73.70;;;;;;4996343;28;19985;-75
2021/03/27 03:55:38;;;;;;;;;;;6.10;73.70;;;;;;4981381;28;19914;-74
2021/03/27 03:58:17;;;;;;;;;;;6.10;73.70;;;;;;4990330;28;20402;-76
2021/03/27 04:00:54;;;;;;;;;;;6.10;73.80;;;;;;4993364;28;20425;-74
2021/03/27 04:03:26;;;;;;;;;;;6.20;73.70;;;;;;4993180;28;19910;-74
2021/03/27 04:05:59;;;;;;;;;;;6.30;73.70;;;;;;4982756;28;19920;-74
2021/03/27 04:08:27;;;;;;;;;;;6.30;73.40;;;;;;4991296;28;19910;-75
2021/03/27 04:10:59;;;;;;;;;;;6.30;73.20;;;;;;4993398;28;20000;-76
2021/03/27 04:13:44;;;;;;;;;;;6.30;72.90;;;;;;4976159;28;20298;-76
2021/03/27 04:16:13;;;;;;;;;;;6.30;72.80;;;;;;4990249;28;19917;-73
2021/03/27 04:18:41;;;;;;;;;;;6.20;72.40;;;;;;4991430;28;19910;-76
2021/03/27 04:21:23;;;;;;;;;;;6.20;72.40;;;;;;5009930;28;19959;-75
2021/03/27 04:24:00;;;;;;;;;;;6.20;72.50;;;;;;5020401;28;20309;-77
2021/03/27 04:26:26;;;;;;;;;;;6.20;72.10;;;;;;5023038;28;19913;-75
2021/03/27 04:29:11;;;;;;;;;;;6.20;72.10;;;;;;5022939;28;19935;-74
2021/03/27 04:31:54;;;;;;;;;;;6.20;72.20;;;;;;5018880;28;19910;-75
2021/03/27 04:34:29;;;;;;;;;;;6.20;72.10;;;;;;5020870;28;20001;-75
2021/03/27 04:36:54;;;;;;;;;;;6.30;72.10;;;;;;5017922;28;19920;-75
2021/03/27 04:39:26;;;;;;;;;;;6.30;72.00;;;;;;5004455;28;19909;-75
2021/03/27 04:42:03;;;;;;;;;;;6.30;71.90;;;;;;5018372;28;20004;-75
2021/03/27 04:44:38;;;;;;;;;;;6.30;71.70;;;;;;5010840;28;19964;-74
2021/03/27 04:47:24;;;;;;;;;;;6.30;71.90;;;;;;5013338;28;19914;-77
2021/03/27 04:49:49;;;;;;;;;;;6.30;71.80;;;;;;4996964;28;20020;-76
2021/03/27 04:52:31;;;;;;;;;;;6.30;71.90;;;;;;5014911;28;19921;-75
2021/03/27 04:55:14;;;;;;;;;;;6.30;71.80;;;;;;5013536;28;19921;-76
2021/03/27 04:57:42;;;;;;;;;;;6.30;71.90;;;;;;5020195;28;19910;-77
2021/03/27 05:00:16;;;;;;;;;;;6.30;71.90;;;;;;5014754;28;19914;-76
2021/03/27 05:03:01;;;;;;;;;;;6.30;71.70;;;;;;5025332;28;19932;-76
2021/03/27 05:05:32;;;;;;;;;;;6.40;71.80;;;;;;5012708;28;19917;-75
2021/03/27 05:07:58;;;;;;;;;;;6.50;71.50;;;;;;5023193;28;19913;-76
2021/03/27 05:10:32;;;;;;;;;;;6.50;71.20;;;;;;4996116;28;20048;-74
2021/03/27 05:13:00;;;;;;;;;;;6.60;71.30;;;;;;5005406;28;19960;-74
2021/03/27 05:15:45;;;;;;;;;;;6.70;71.30;;;;;;5007793;28;20267;-74
2021/03/27 05:18:14;;;;;;;;;;;6.70;71.10;;;;;;5020965;28;19921;-75
2021/03/27 05:20:41;;;;;;;;;;;6.80;71.00;;;;;;5013747;28;20409;-76
2021/03/27 05:23:19;;;;;;;;;;;6.90;70.90;;;;;;4994294;28;20615;-75
2021/03/27 05:25:45;;;;;;;;;;;7.00;70.60;;;;;;5002543;28;19924;-77
2021/03/27 05:28:37;;;;;;;;;;;7.10;70.20;;;;;;5023129;28;19909;-78
2021/03/27 05:31:26;;;;;;;;;;;7.10;70.00;;;;;;4988471;28;19913;-78
2021/03/27 05:34:02;;;;;;;;;;;7.20;70.00;;;;;;5000145;28;20016;-79
2021/03/27 05:36:37;;;;;;;;;;;7.20;69.50;;;;;;5022750;28;19916;-78
2021/03/27 05:39:03;;;;;;;;;;;7.20;69.50;;;;;;5025694;28;19913;-75
2021/03/27 05:41:48;;;;;;;;;;;7.30;69.10;;;;;;5027379;28;19914;-76
2021/03/27 05:44:35;;;;;;;;;;;7.40;69.00;;;;;;5006373;28;19921;-76
2021/03/27 05:47:10;;;;;;;;;;;7.50;68.80;;;;;;5004663;28;19909;-76
2021/03/27 05:49:39;;;;;;;;;;;7.50;68.40;;;;;;4990431;28;19926;-79
2021/03/27 05:52:19;;;;;;;;;;;7.50;68.30;;;;;;4994407;28;19917;-78
2021/03/27 05:55:03;;;;;;;;;;;7.70;68.30;;;;;;5006315;28;19972;-79
2021/03/27 05:57:32;;;;;;;;;;;7.80;67.80;;;;;;4994052;28;19914;-79
2021/03/27 06:00:12;;;;;;;;;;;7.90;67.30;;;;;;4980472;28;20378;-81
2021/03/27 06:02:41;;;;;;;;;;;7.90;66.60;;;;;;4983658;28;19916;-77
2021/03/27 06:05:29;;;;;;;;;;;8.00;66.90;;;;;;5005786;28;19992;-80
2021/03/27 06:08:18;;;;;;;;;;;8.10;66.40;;;;;;4987127;28;19909;-81
2021/03/27 06:10:51;;;;;;;;;;;8.10;66.20;;;;;;4999725;28;19992;-78
2021/03/27 06:13:35;;;;;;;;;;;8.20;65.90;;;;;;4993207;28;19936;-75
2021/03/27 06:16:13;;;;;;;;;;;8.30;65.70;;;;;;4993792;28;19914;-74
2021/03/27 06:18:57;;;;;;;;;;;8.40;65.20;;;;;;4992895;28;20275;-74
2021/03/27 06:21:28;;;;;;;;;;;8.50;64.90;;;;;;5001915;28;19910;-77
2021/03/27 06:24:12;;;;;;;;;;;8.60;63.90;;;;;;4998234;28;20260;-77
2021/03/27 06:27:01;;;;;;;;;;;8.50;64.00;;;;;;4993694;28;19917;-75
2021/03/27 06:29:26;;;;;;;;;;;8.70;64.20;;;;;;4984950;28;20338;-79
2021/03/27 06:31:58;;;;;;;;;;;8.80;63.30;;;;;;4998596;28;19914;-76
2021/03/27 06:34:39;;;;;;;;;;;8.90;63.40;;;;;;4992842;28;19922;-74
2021/03/27 06:37:19;;;;;;;;;;;9.00;63.30;;;;;;4992513;28;19945;-76
2021/03/27 06:39:45;;;;;;;;;;;9.10;62.50;;;;;;4994898;28;19909;-76
2021/03/27 06:42:25;;;;;;;;;;;9.10;62.40;;;;;;5001142;28;19925;-77
2021/03/27 06:45:09;;;;;;;;;;;9.10;61.80;;;;;;5006757;28;19921;-76
2021/03/27 06:47:54;;;;;;;;;;;9.10;62.30;;;;;;5016385;28;19909;-78
2021/03/27 06:50:19;;;;;;;;;;;9.20;62.20;;;;;;5015765;28;19914;-75
2021/03/27 06:52:48;;;;;;;;;;;9.30;61.40;;;;;;5015066;28;19921;-77
2021/03/27 06:55:17;;;;;;;;;;;9.40;61.50;;;;;;5009318;28;20404;-75
2021/03/27 06:57:54;;;;;;;;;;;9.40;61.40;;;;;;5014326;28;20417;-77
2021/03/27 07:00:39;;;;;;;;;;;9.60;61.50;;;;;;5009627;28;19913;-75
2021/03/27 07:03:07;;;;;;;;;;;9.80;61.30;;;;;;5012772;28;19924;-76
2021/03/27 07:05:51;;;;;;;;;;;9.90;60.00;;;;;;5008126;28;19910;-77
2021/03/27 07:08:55;;;;;;;;;;;10.00;60.40;;;;;;5013378;28;20016;-76
2021/03/27 07:11:34;;;;;;;;;;;10.10;58.60;;;;;;4948730;28;19915;-77
2021/03/27 07:13:59;;;;;;;;;;;10.00;58.30;;;;;;4937610;29;20391;-75
2021/03/27 07:16:31;;;;;;;;;;;9.70;58.60;;;;;;4986375;28;19910;-78
2021/03/27 07:19:14;;;;;;;;;;;10.20;59.90;;;;;;5015367;28;20438;-76
2021/03/27 07:22:05;;;;;;;;;;;11.70;60.00;;;;;;5014592;28;19977;-75
2021/03/27 07:24:36;;;;;;;;;;;13.50;53.00;;;;;;5014528;28;19976;-75
2021/03/27 07:27:05;;;;;;;;;;;14.70;49.00;;;;;;5014914;28;19916;-76
2021/03/27 07:29:49;;;;;;;;;;;15.40;47.90;;;;;;5012740;28;19921;-76
2021/03/27 07:32:31;;;;;;;;;;;16.10;46.50;;;;;;5014964;28;19917;-76
2021/03/27 07:35:09;;;;;;;;;;;17.30;46.90;;;;;;5008811;28;20013;-78
2021/03/27 07:37:40;;;;;;;;;;;18.20;43.70;;;;;;5008800;28;20017;-79
2021/03/27 07:40:31;;;;;;;;;;;18.40;41.70;;;;;;5011269;28;19928;-78
2021/03/27 07:43:03;;;;;;;;;;;18.60;39.90;;;;;;5004041;28;20028;-78
2021/03/27 07:45:38;;;;;;;;;;;18.60;39.50;;;;;;5006682;28;19956;-79
2021/03/27 07:48:22;;;;;;;;;;;19.40;40.50;;;;;;5005255;28;20260;-76
2021/03/27 07:50:51;;;;;;;;;;;20.40;38.90;;;;;;5011737;28;19975;-82
2021/03/27 07:53:29;;;;;;;;;;;20.60;36.30;;;;;;5005117;28;20024;-81
2021/03/27 07:56:04;;;;;;;;;;;20.50;34.30;;;;;;5007659;28;19920;-81
2021/03/27 07:58:48;;;;;;;;;;;19.60;33.90;;;;;;5007852;28;19913;-80
2021/03/27 08:01:20;;;;;;;;;;;18.90;36.30;;;;;;5013138;28;20008;-79
2021/03/27 08:04:12;;;;;;;;;;;19.40;35.50;;;;;;5010376;28;19917;-76
2021/03/27 08:07:10;;;;;;;;;;;19.80;35.40;;;;;;4991412;28;20377;-76
2021/03/27 08:09:51;;;;;;;;;;;20.40;35.10;;;;;;4976399;28;20003;-78
2021/03/27 08:12:27;;;;;;;;;;;21.10;33.50;;;;;;5013698;28;19913;-79
2021/03/27 08:15:12;;;;;;;;;;;20.90;33.20;;;;;;5011127;28;20016;-78
2021/03/27 08:17:59;;;;;;;;;;;20.80;33.00;;;;;;4997517;28;20008;-82
2021/03/27 08:20:28;;;;;;;;;;;21.30;32.90;;;;;;5003687;28;19940;-83
2021/03/27 08:22:59;;;;;;;;;;;21.60;33.10;;;;;;5006037;28;20020;-83
2021/03/27 08:25:44;;;;;;;;;;;22.10;32.20;;;;;;5007267;28;19914;-84
2021/03/27 08:28:19;;;;;;;;;;;22.10;31.00;;;;;;5000459;28;20382;-84
2021/03/27 08:31:07;;;;;;;;;;;22.30;30.00;;;;;;5014447;28;20012;-82
2021/03/27 08:33:38;;;;;;;;;;;21.50;30.50;;;;;;5013955;28;19921;-82
2021/03/27 08:36:19;;;;;;;;;;;21.60;31.80;;;;;;5000345;28;20003;-82
2021/03/27 08:38:57;;;;;;;;;;;22.30;31.50;;;;;;5011186;28;20012;-81
2021/03/27 08:41:42;;;;;;;;;;;22.80;29.60;;;;;;5013345;28;19992;-83
2021/03/27 08:44:17;;;;;;;;;;;22.70;29.40;;;;;;5003820;28;19921;-81
2021/03/27 08:46:48;;;;;;;;;;;22.90;30.30;;;;;;5010500;28;19914;-81
2021/03/27 08:49:17;;;;;;;;;;;23.60;28.90;;;;;;5011865;28;19917;-82
2021/03/27 08:51:57;;;;;;;;;;;23.60;28.80;;;;;;5011295;28;20276;-81
2021/03/27 08:54:41;;;;;;;;;;;22.50;28.50;;;;;;5014983;28;19997;-82
2021/03/27 08:57:25;;;;;;;;;;;21.90;29.40;;;;;;5013771;28;19918;-80
2021/03/27 09:00:09;;;;;;;;;;;21.80;29.70;;;;;;5012632;28;19914;-79
2021/03/27 09:02:35;;;;;;;;;;;22.00;29.40;;;;;;5005722;28;19918;-83
2021/03/27 09:05:13;;;;;;;;;;;22.70;29.40;;;;;;5013826;28;19972;-83
2021/03/27 09:07:45;;;;;;;;;;;22.90;28.70;;;;;;4994767;28;20342;-83
2021/03/27 09:10:32;;;;;;;;;;;23.00;28.10;;;;;;5011682;28;19913;-81
2021/03/27 09:12:58;;;;;;;;;;;23.40;28.70;;;;;;5008799;28;19917;-82
2021/03/27 09:15:42;;;;;;;;;;;22.20;28.20;;;;;;5005305;28;19920;-84
2021/03/27 09:18:22;;;;;;;;;;;21.90;28.20;;;;;;5010527;28;19913;-84
2021/03/27 09:21:06;;;;;;;;;;;22.30;28.60;;;;;;5011030;28;20008;-85
2021/03/27 09:24:10;;;;;;;;;;;22.40;28.30;;;;;;5009109;28;19917;-85
2021/03/27 09:26:56;;;;;;;;;;;22.40;28.80;;;;;;4924590;29;19926;-85
2021/03/27 09:29:39;;;;;;;;;;;23.00;27.70;;;;;;4933936;29;20348;-85
2021/03/27 09:32:20;;;;;;;;;;;22.40;28.30;;;;;;4937247;29;20013;-84
2021/03/27 09:35:01;;;;;;;;;;;22.40;28.60;;;;;;4936149;29;19954;-84
2021/03/27 09:37:37;;;;;;;;;;;22.50;28.40;;;;;;4918999;29;19925;-84
2021/03/27 09:40:13;;;;;;;;;;;20.90;28.80;;;;;;4935425;29;20018;-86
2021/03/27 09:42:39;;;;;;;;;;;19.40;29.80;;;;;;4938235;29;19923;-75
2021/03/27 09:45:19;;;;;;;;;;;18.00;31.00;;;;;;4941039;29;19937;-79
2021/03/27 09:47:55;;;;;;;;;;;16.70;32.60;;;;;;4943620;29;19938;-77
2021/03/27 09:50:27;;;;;;;;;;;15.70;34.30;;;;;;4947316;29;19911;-79
2021/03/27 09:53:13;;;;;;;;;;;14.80;35.90;;;;;;4915794;29;19910;-78
2021/03/27 09:55:55;;;;;;;;;;;14.10;37.40;;;;;;4919226;29;19915;-77
2021/03/27 09:58:38;;;;;;;;;;;14.00;38.60;;;;;;5004771;28;19910;-75
2021/03/27 10:01:07;;;;;;;;;;;13.90;38.50;;;;;;5013212;28;19910;-76
2021/03/27 10:03:39;;;;;;;;;;;13.50;39.10;;;;;;5012544;28;19925;-76
2021/03/27 10:06:11;;;;;;;;;;;13.50;39.90;;;;;;4995104;28;19935;-77
2021/03/27 10:08:42;;;;;;;;;;;13.80;39.50;;;;;;5012620;28;19996;-75
2021/03/27 10:11:13;;;;;;;;;;;14.10;39.10;;;;;;5012534;28;19913;-74
2021/03/27 10:13:41;;;;;;;;;;;14.40;38.90;;;;;;5012520;28;20402;-78
2021/03/27 10:16:12;;;;;;;;;;;14.20;38.50;;;;;;5016493;28;20012;-79
2021/03/27 10:18:41;;;;;;;;;;;13.90;38.50;;;;;;5017101;28;20271;-76
2021/03/27 10:21:18;;;;;;;;;;;13.80;39.60;;;;;;5017013;28;19913;-77
2021/03/27 10:23:58;;;;;;;;;;;14.30;39.80;;;;;;4999551;28;20276;-78
2021/03/27 10:26:30;;;;;;;;;;;14.50;38.80;;;;;;5017051;28;19914;-77
2021/03/27 10:29:00;;;;;;;;;;;14.00;38.60;;;;;;5002123;28;20064;-77
2021/03/27 10:31:34;;;;;;;;;;;13.40;39.00;;;;;;4999087;28;19917;-77
2021/03/27 10:34:03;;;;;;;;;;;12.70;39.90;;;;;;5016626;28;19918;-78
2021/03/27 10:36:38;;;;;;;;;;;12.20;40.60;;;;;;5017031;28;19914;-77
2021/03/27 10:39:22;;;;;;;;;;;12.00;41.10;;;;;;4999014;28;20299;-77
2021/03/27 10:41:56;;;;;;;;;;;12.00;41.20;;;;;;5014536;28;19916;-78
2021/03/27 10:44:32;;;;;;;;;;;12.00;42.70;;;;;;4999107;28;20397;-78
2021/03/27 10:47:22;;;;;;;;;;;11.90;42.80;;;;;;5016786;28;20007;-78
2021/03/27 10:49:50;;;;;;;;;;;12.00;42.20;;;;;;5016120;28;19913;-78
2021/03/27 10:52:34;;;;;;;;;;;11.80;42.90;;;;;;5016213;28;19910;-78
2021/03/27 10:55:19;;;;;;;;;;;11.60;43.30;;;;;;5015841;28;19917;-78
2021/03/27 10:57:48;;;;;;;;;;;11.50;43.80;;;;;;5018036;28;19909;-80
2021/03/27 11:00:32;;;;;;;;;;;11.30;43.40;;;;;;5013091;28;19925;-77
2021/03/27 11:03:00;;;;;;;;;;;11.30;43.50;;;;;;5015977;28;20405;-78
2021/03/27 11:05:31;;;;;;;;;;;11.20;43.40;;;;;;5015972;28;19920;-79
2021/03/27 11:07:59;;;;;;;;;;;11.10;44.00;;;;;;5015984;28;19971;-80
2021/03/27 11:10:43;;;;;;;;;;;11.10;44.10;;;;;;5016230;28;19910;-78
2021/03/27 11:13:18;;;;;;;;;;;11.00;44.20;;;;;;5015613;28;20271;-78
2021/03/27 11:16:03;;;;;;;;;;;10.90;44.70;;;;;;4999627;28;19910;-78
2021/03/27 11:18:42;;;;;;;;;;;10.80;44.30;;;;;;5015561;28;19960;-79
2021/03/27 11:21:07;;;;;;;;;;;10.70;44.20;;;;;;5015527;28;19914;-77
2021/03/27 11:23:51;;;;;;;;;;;10.80;44.60;;;;;;5015679;28;19909;-79
2021/03/27 11:26:36;;;;;;;;;;;11.00;44.60;;;;;;5013324;28;19913;-78
2021/03/27 11:29:10;;;;;;;;;;;11.10;44.60;;;;;;5016405;28;19964;-78
2021/03/27 11:31:43;;;;;;;;;;;11.10;44.60;;;;;;5012520;28;19917;-78
2021/03/27 11:34:08;;;;;;;;;;;11.10;44.70;;;;;;4993178;28;20399;-81
2021/03/27 11:36:38;;;;;;;;;;;11.10;44.90;;;;;;5014003;28;19955;-86
2021/03/27 11:39:36;;;;;;;;;;;11.20;44.80;;;;;;5018273;28;19910;-80
2021/03/27 11:42:10;;;;;;;;;;;11.30;44.70;;;;;;4982238;28;19913;-82
2021/03/27 11:44:51;;;;;;;;;;;11.60;44.00;;;;;;5016833;28;20325;-83
2021/03/27 11:47:39;;;;;;;;;;;11.70;43.00;;;;;;5016987;28;20004;-82
2021/03/27 11:50:13;;;;;;;;;;;11.80;42.60;;;;;;5018075;28;20008;-83
2021/03/27 11:52:46;;;;;;;;;;;11.80;42.50;;;;;;5027656;28;19909;-83
2021/03/27 11:55:14;;;;;;;;;;;11.80;43.00;;;;;;5027381;28;19917;-82
2021/03/27 11:57:45;;;;;;;;;;;11.60;43.60;;;;;;5021498;28;19910;-78
2021/03/27 12:03:19;;;;;;;;;;;11.50;43.10;;;;;;5018375;28;19927;-80
2021/03/27 12:05:50;;;;;;;;;;;11.40;42.30;;;;;;5019584;28;20375;-80
2021/03/27 12:08:34;;;;;;;;;;;11.40;43.30;;;;;;5028532;28;19949;-77
2021/03/27 12:11:05;;;;;;;;;;;11.40;44.10;;;;;;4997459;28;19909;-79
2021/03/27 12:13:37;;;;;;;;;;;11.40;44.20;;;;;;5024276;28;20371;-78
2021/03/27 12:16:09;;;;;;;;;;;11.50;43.90;;;;;;4997070;28;19916;-78
2021/03/27 12:18:53;;;;;;;;;;;11.50;43.90;;;;;;5014294;28;20347;-79
2021/03/27 12:21:42;;;;;;;;;;;11.60;42.80;;;;;;5026392;28;19916;-80
2021/03/27 12:24:32;;;;;;;;;;;11.70;41.20;;;;;;5016321;28;19913;-77
2021/03/27 12:27:16;;;;;;;;;;;11.60;41.40;;;;;;5014401;28;19921;-76
2021/03/27 12:29:47;;;;;;;;;;;11.80;41.80;;;;;;5019258;28;19945;-83
2021/03/27 12:32:26;;;;;;;;;;;12.10;41.40;;;;;;5026250;28;19917;-81
2021/03/27 12:35:00;;;;;;;;;;;12.40;41.10;;;;;;5014436;28;20429;-83
2021/03/27 12:37:35;;;;;;;;;;;12.50;41.10;;;;;;5025050;28;19909;-82
2021/03/27 12:40:16;;;;;;;;;;;12.50;41.00;;;;;;5014475;28;20252;-80
2021/03/27 12:42:47;;;;;;;;;;;12.60;41.30;;;;;;5002492;28;20263;-83
2021/03/27 12:45:14;;;;;;;;;;;12.50;41.00;;;;;;5014328;28;19925;-83
2021/03/27 12:47:43;;;;;;;;;;;12.40;41.30;;;;;;5013552;28;20343;-80
2021/03/27 12:50:15;;;;;;;;;;;12.10;41.50;;;;;;5014866;28;20016;-79
2021/03/27 12:52:56;;;;;;;;;;;11.90;40.60;;;;;;5014102;28;19908;-79
2021/03/27 12:55:42;;;;;;;;;;;11.70;40.30;;;;;;5035420;28;19917;-81
2021/03/27 12:58:07;;;;;;;;;;;11.60;40.40;;;;;;5033656;28;20031;-80
2021/03/27 13:00:39;;;;;;;;;;;11.50;40.40;;;;;;5032468;28;20010;-80
2021/03/27 13:03:04;;;;;;;;;;;11.40;41.00;;;;;;5016073;28;19909;-82
2021/03/27 13:05:30;;;;;;;;;;;11.20;41.30;;;;;;5016158;28;19916;-81
2021/03/27 13:07:58;;;;;;;;;;;11.10;41.60;;;;;;5033740;28;20405;-80
2021/03/27 13:10:46;;;;;;;;;;;11.00;41.70;;;;;;5015854;28;19913;-81
2021/03/27 13:13:14;;;;;;;;;;;10.90;42.10;;;;;;5033140;28;19913;-80
2021/03/27 13:15:40;;;;;;;;;;;10.80;42.20;;;;;;5033672;28;19960;-81
2021/03/27 13:18:06;;;;;;;;;;;10.70;42.20;;;;;;5033353;28;19913;-76
2021/03/27 13:20:40;;;;;;;;;;;10.80;42.50;;;;;;5014400;28;19909;-78
2021/03/27 13:23:06;;;;;;;;;;;10.70;42.60;;;;;;5032357;28;19909;-78
2021/03/27 13:25:40;;;;;;;;;;;10.80;42.80;;;;;;5011629;28;20286;-79
2021/03/27 13:28:17;;;;;;;;;;;10.80;43.00;;;;;;5013094;28;19914;-79
2021/03/27 13:30:50;;;;;;;;;;;10.70;42.90;;;;;;5016066;28;19933;-79
2021/03/27 13:33:19;;;;;;;;;;;10.60;42.90;;;;;;5023707;28;19921;-78
2021/03/27 13:35:51;;;;;;;;;;;10.40;43.00;;;;;;5028525;28;19989;-77
2021/03/27 13:38:28;;;;;;;;;;;10.40;42.90;;;;;;5027056;28;19913;-77
2021/03/27 13:40:55;;;;;;;;;;;10.40;42.80;;;;;;5027999;28;19910;-75
2021/03/27 13:43:53;;;;;;;;;;;10.30;42.90;;;;;;5025205;28;19944;-76
2021/03/27 13:46:48;;;;;;;;;;;10.30;43.00;;;;;;4965259;28;19920;-78
2021/03/27 13:49:21;;;;;;;;;;;10.30;43.00;;;;;;4946724;28;20344;-76
2021/03/27 13:51:53;;;;;;;;;;;10.30;43.10;;;;;;5016836;28;20279;-78
2021/03/27 13:54:38;;;;;;;;;;;10.30;43.00;;;;;;5016946;28;19987;-78
2021/03/27 13:57:06;;;;;;;;;;;10.30;43.10;;;;;;5010525;28;20358;-76
2021/03/27 13:59:40;;;;;;;;;;;10.30;42.50;;;;;;5033294;28;19999;-77
2021/03/27 14:02:06;;;;;;;;;;;10.30;42.50;;;;;;5017812;28;19958;-77
2021/03/27 14:04:37;;;;;;;;;;;10.20;42.10;;;;;;5036267;28;19909;-78
2021/03/27 14:07:04;;;;;;;;;;;10.20;42.10;;;;;;5033170;28;20358;-76
2021/03/27 14:09:29;;;;;;;;;;;10.10;42.00;;;;;;5032776;28;19924;-76
2021/03/27 14:12:04;;;;;;;;;;;10.00;41.60;;;;;;5032674;28;19917;-77
2021/03/27 14:14:38;;;;;;;;;;;10.00;41.60;;;;;;5032676;28;19917;-78
2021/03/27 14:17:07;;;;;;;;;;;9.90;42.00;;;;;;5014741;28;19911;-77
2021/03/27 14:19:47;;;;;;;;;;;9.90;42.20;;;;;;5033077;28;20347;-78
2021/03/27 14:22:32;;;;;;;;;;;9.90;42.00;;;;;;5032411;28;19909;-75
2021/03/27 14:25:07;;;;;;;;;;;9.90;42.10;;;;;;5032353;28;19909;-78
2021/03/27 14:27:37;;;;;;;;;;;9.80;42.00;;;;;;5032542;28;20427;-80
2021/03/27 14:30:06;;;;;;;;;;;9.80;42.10;;;;;;5032433;28;19916;-78
2021/03/27 14:32:37;;;;;;;;;;;9.80;42.40;;;;;;5032608;28;19909;-77
2021/03/27 14:35:03;;;;;;;;;;;9.70;42.30;;;;;;5031955;28;19918;-77
2021/03/27 14:37:37;;;;;;;;;;;9.70;43.10;;;;;;5031866;28;19921;-75
2021/03/27 14:40:22;;;;;;;;;;;9.60;42.80;;;;;;5032578;28;19916;-80
2021/03/27 14:42:53;;;;;;;;;;;9.60;43.00;;;;;;5032249;28;19925;-74
2021/03/27 14:45:37;;;;;;;;;;;9.60;42.70;;;;;;5032038;28;19913;-75
2021/03/27 14:48:03;;;;;;;;;;;9.60;42.50;;;;;;5014206;28;19915;-75
2021/03/27 14:50:32;;;;;;;;;;;9.60;42.80;;;;;;5021044;28;20004;-75
2021/03/27 14:53:08;;;;;;;;;;;9.60;42.80;;;;;;5018922;28;19917;-76
2021/03/27 14:55:33;;;;;;;;;;;9.60;43.00;;;;;;5032149;28;19920;-77
2021/03/27 14:58:23;;;;;;;;;;;9.50;43.00;;;;;;5031913;28;19913;-76
2021/03/27 15:00:51;;;;;;;;;;;9.50;43.30;;;;;;5029765;28;19910;-75
2021/03/27 15:03:32;;;;;;;;;;;9.40;43.50;;;;;;5033316;28;20285;-76
2021/03/27 15:06:16;;;;;;;;;;;9.40;43.70;;;;;;5037235;28;20362;-77
2021/03/27 15:09:08;;;;;;;;;;;9.30;43.90;;;;;;5017795;28;19963;-76
2021/03/27 15:11:39;;;;;;;;;;;9.30;44.10;;;;;;5032354;28;19947;-76
2021/03/27 15:14:07;;;;;;;;;;;9.30;44.40;;;;;;5035724;28;19924;-76
2021/03/27 15:16:38;;;;;;;;;;;9.20;44.20;;;;;;5035676;28;19984;-75